createdAt,value
2022-11-09T00:01:28.659Z,98682.50
2022-11-09T00:04:14.945Z,98661.00
2022-11-09T00:07:01.668Z,98679.91
2022-11-09T00:09:48.017Z,98680.72
2022-11-09T00:12:34.206Z,98663.53
2022-11-09T00:15:20.658Z,98665.28
2022-11-09T00:18:06.905Z,98673.00
2022-11-09T00:20:53.380Z,98645.50
2022-11-09T00:23:39.529Z,98673.91
2022-11-09T00:26:26.709Z,98635.22
2022-11-09T00:29:12.797Z,98653.22
2022-11-09T00:32:00.308Z,98642.06
2022-11-09T00:34:46.690Z,98646.34
2022-11-09T00:37:33.236Z,98678.13
2022-11-09T00:40:19.856Z,98672.97
2022-11-09T00:43:06.110Z,98663.50
2022-11-09T00:45:52.244Z,98664.38
2022-11-09T00:48:40.442Z,98671.25
2022-11-09T00:51:26.848Z,98658.38
2022-11-09T00:54:13.559Z,98643.72
2022-11-09T00:57:00.020Z,98659.19
2022-11-09T00:59:46.647Z,98652.34
2022-11-09T01:02:32.754Z,98676.41
2022-11-09T01:05:19.996Z,98658.38
2022-11-09T01:08:09.517Z,98670.41
2022-11-09T01:10:56.521Z,98654.06
2022-11-09T01:13:42.976Z,98655.78
2022-11-09T01:16:29.827Z,98656.63
2022-11-09T01:19:16.469Z,98659.22
2022-11-09T01:22:02.769Z,98697.91
2022-11-09T01:24:49.273Z,98694.47
2022-11-09T01:27:36.388Z,98663.53
2022-11-09T01:30:25.065Z,98685.03
2022-11-09T01:33:12.076Z,98692.75
2022-11-09T01:36:03.853Z,98706.47
2022-11-09T01:38:51.499Z,98694.44
2022-11-09T01:41:38.085Z,98709.88
2022-11-09T01:44:27.524Z,98727.13
2022-11-09T01:47:23.606Z,98696.19
2022-11-09T01:50:12.069Z,98715.09
2022-11-09T01:53:03.556Z,98717.69
2022-11-09T01:55:54.346Z,98689.31
2022-11-09T01:59:03.846Z,98713.38
2022-11-09T02:01:51.837Z,98725.44
2022-11-09T02:04:48.579Z,98724.56
2022-11-09T02:07:37.487Z,98693.63
2022-11-09T02:10:23.925Z,98730.63
2022-11-09T02:13:13.946Z,98716.84
2022-11-09T02:16:00.662Z,98715.13
2022-11-09T02:18:55.982Z,98725.44
2022-11-09T02:21:44.190Z,98726.31
2022-11-09T02:24:32.772Z,98730.56
2022-11-09T02:27:19.432Z,98703.91
2022-11-09T02:30:07.572Z,98727.13
2022-11-09T02:32:54.924Z,98684.09
2022-11-09T02:35:42.385Z,98709.94
2022-11-09T02:38:28.564Z,98730.53
2022-11-09T02:41:14.792Z,98727.13
2022-11-09T02:44:02.066Z,98721.97
2022-11-09T02:46:48.746Z,98716.84
2022-11-09T02:49:35.196Z,98739.13
2022-11-09T02:52:21.649Z,98740.03
2022-11-09T02:55:08.948Z,98740.06
2022-11-09T02:57:55.476Z,98740.06
2022-11-09T03:00:42.946Z,98751.25
2022-11-09T03:03:30.900Z,98716.03
2022-11-09T03:06:17.408Z,98725.50
2022-11-09T03:09:07.900Z,98724.63
2022-11-09T03:11:54.000Z,98713.44
2022-11-09T03:14:40.920Z,98738.38
2022-11-09T03:17:27.992Z,98753.88
2022-11-09T03:20:14.741Z,98743.56
2022-11-09T03:23:02.130Z,98730.66
2022-11-09T03:25:51.128Z,98723.78
2022-11-09T03:28:37.623Z,98725.53
2022-11-09T03:31:24.207Z,98751.34
2022-11-09T03:34:13.053Z,98742.75
2022-11-09T03:36:59.625Z,98748.75
2022-11-09T03:39:45.799Z,98740.16
2022-11-09T03:42:32.449Z,98720.34
2022-11-09T03:45:18.741Z,98739.28
2022-11-09T03:48:05.630Z,98747.88
2022-11-09T03:50:51.874Z,98718.63
2022-11-09T03:53:38.116Z,98732.38
2022-11-09T03:56:24.833Z,98740.13
2022-11-09T03:59:11.093Z,98733.25
2022-11-09T04:01:57.649Z,98675.66
2022-11-09T04:04:44.141Z,98728.06
2022-11-09T04:07:30.748Z,98734.13
2022-11-09T04:10:17.376Z,98725.50
2022-11-09T04:13:03.888Z,98708.34
2022-11-09T04:15:50.308Z,98715.19
2022-11-09T04:18:36.692Z,98740.16
2022-11-09T04:21:24.094Z,98736.69
2022-11-09T04:24:10.689Z,98754.75
2022-11-09T04:26:56.983Z,98739.25
2022-11-09T04:29:43.506Z,98750.47
2022-11-09T04:32:29.767Z,98766.81
2022-11-09T04:35:16.329Z,98749.59
2022-11-09T04:38:05.603Z,98768.53
2022-11-09T04:40:51.972Z,98742.72
2022-11-09T04:43:38.257Z,98736.72
2022-11-09T04:46:24.946Z,98755.59
2022-11-09T04:49:11.529Z,98751.34
2022-11-09T04:51:57.591Z,98751.31
2022-11-09T04:54:44.083Z,98744.44
2022-11-09T04:57:30.315Z,98701.44
2022-11-09T05:00:16.860Z,98702.28
2022-11-09T05:03:05.708Z,98737.53
2022-11-09T05:05:52.267Z,98704.84
2022-11-09T05:08:38.341Z,98721.19
2022-11-09T05:11:24.823Z,98741.78
2022-11-09T05:14:11.305Z,98737.50
2022-11-09T05:16:57.705Z,98721.16
2022-11-09T05:19:43.929Z,98728.06
2022-11-09T05:22:48.877Z,98713.41
2022-11-09T05:25:35.357Z,98724.59
2022-11-09T05:28:21.655Z,98706.53
2022-11-09T05:31:08.236Z,98733.16
2022-11-09T05:33:55.560Z,98740.03
2022-11-09T05:36:42.076Z,98726.28
2022-11-09T05:39:28.627Z,98747.75
2022-11-09T05:42:15.217Z,98747.75
2022-11-09T05:45:21.098Z,98739.16
2022-11-09T05:48:07.937Z,98735.69
2022-11-09T05:50:54.299Z,98723.63
2022-11-09T05:53:46.352Z,98731.44
2022-11-09T05:56:33.144Z,98721.03
2022-11-09T05:59:19.481Z,98727.09
2022-11-09T06:02:06.032Z,98733.13
2022-11-09T06:04:52.683Z,98701.31
2022-11-09T06:07:39.117Z,98691.84
2022-11-09T06:10:25.631Z,98735.72
2022-11-09T06:13:12.132Z,98737.47
2022-11-09T06:16:00.240Z,98780.50
2022-11-09T06:18:46.716Z,98770.19
2022-11-09T06:21:32.865Z,98782.22
2022-11-09T06:24:19.232Z,98767.59
2022-11-09T06:27:06.147Z,98772.75
2022-11-09T06:29:52.722Z,98771.00
2022-11-09T06:32:39.160Z,98778.72
2022-11-09T06:35:25.867Z,98772.66
2022-11-09T06:38:12.006Z,98750.38
2022-11-09T06:40:59.745Z,98773.59
2022-11-09T06:43:46.334Z,98777.00
2022-11-09T06:46:33.012Z,98845.00
2022-11-09T06:49:19.130Z,98892.41
2022-11-09T06:52:05.827Z,98855.41
2022-11-09T06:54:52.118Z,98864.91
2022-11-09T06:57:38.297Z,98832.19
2022-11-09T07:00:25.448Z,98870.09
2022-11-09T07:03:15.176Z,98820.16
2022-11-09T07:06:06.080Z,98863.19
2022-11-09T07:08:55.946Z,98849.38
2022-11-09T07:11:42.352Z,98831.31
2022-11-09T07:14:28.959Z,98831.28
2022-11-09T07:17:15.245Z,98845.94
2022-11-09T07:20:01.548Z,98829.56
2022-11-09T07:22:49.706Z,98858.84
2022-11-09T07:25:36.146Z,98844.22
2022-11-09T07:28:22.520Z,98819.25
2022-11-09T07:31:09.514Z,98851.09
2022-11-09T07:33:58.262Z,98840.78
2022-11-09T07:36:44.695Z,98833.03
2022-11-09T07:39:31.717Z,98844.22
2022-11-09T07:42:18.027Z,98845.94
2022-11-09T07:45:06.212Z,98847.63
2022-11-09T07:47:57.720Z,98865.75
2022-11-09T07:50:44.356Z,98867.44
2022-11-09T07:53:31.380Z,98839.03
2022-11-09T07:56:17.978Z,98817.53
2022-11-09T07:59:04.895Z,98824.41
2022-11-09T08:01:51.074Z,98769.34
2022-11-09T08:04:37.264Z,98845.88
2022-11-09T08:07:23.579Z,98847.56
2022-11-09T08:10:10.139Z,98832.06
2022-11-09T08:13:08.209Z,98829.38
2022-11-09T08:15:54.593Z,98829.38
2022-11-09T08:18:40.956Z,98808.75
2022-11-09T08:21:27.219Z,98808.63
2022-11-09T08:24:13.564Z,98806.91
2022-11-09T08:26:59.802Z,98806.00
2022-11-09T08:29:45.997Z,98829.16
2022-11-09T08:32:32.460Z,98835.16
2022-11-09T08:35:21.881Z,98827.34
2022-11-09T08:38:09.783Z,98816.13
2022-11-09T08:40:58.082Z,98828.06
2022-11-09T08:43:44.668Z,98821.13
2022-11-09T08:46:31.034Z,98829.72
2022-11-09T08:49:17.879Z,98823.72
2022-11-09T08:52:04.043Z,98840.13
2022-11-09T08:54:50.341Z,98808.19
2022-11-09T08:57:36.689Z,98811.63
2022-11-09T09:00:23.336Z,98820.28
2022-11-09T09:03:09.798Z,98843.31
2022-11-09T09:05:55.994Z,98817.56
2022-11-09T09:08:42.180Z,98831.25
2022-11-09T09:11:28.741Z,98769.34
2022-11-09T09:14:15.926Z,98808.75
2022-11-09T09:17:02.321Z,98843.19
2022-11-09T09:19:50.084Z,98849.13
2022-11-09T09:22:37.297Z,98851.69
2022-11-09T09:25:23.456Z,98855.06
2022-11-09T09:28:09.776Z,98857.44
2022-11-09T09:31:01.027Z,98792.81
2022-11-09T09:33:50.010Z,98851.13
2022-11-09T09:36:36.282Z,98845.75
2022-11-09T09:39:22.371Z,98870.44
2022-11-09T09:42:16.846Z,98853.97
2022-11-09T09:45:15.238Z,98838.28
2022-11-09T09:48:20.740Z,98884.75
2022-11-09T09:51:18.443Z,98861.38
2022-11-09T09:54:15.209Z,98875.91
2022-11-09T09:57:02.445Z,98879.44
2022-11-09T09:59:54.813Z,98870.72
2022-11-09T10:02:41.422Z,98819.78
2022-11-09T10:05:57.039Z,98854.78
2022-11-09T10:08:56.021Z,98845.38
2022-11-09T10:11:45.382Z,98872.81
2022-11-09T10:14:47.030Z,98866.75
2022-11-09T10:18:00.816Z,98865.63
2022-11-09T10:21:27.568Z,98864.53
2022-11-09T10:24:34.945Z,98871.19
2022-11-09T10:27:35.176Z,98850.50
2022-11-09T10:30:27.257Z,98868.38
2022-11-09T10:33:21.203Z,98826.16
2022-11-09T10:36:15.160Z,98844.03
2022-11-09T10:39:01.781Z,98851.44
2022-11-09T10:42:10.570Z,98818.06
2022-11-09T10:45:28.905Z,98827.31
2022-11-09T10:48:41.025Z,98833.97
2022-11-09T10:51:46.538Z,98843.28
2022-11-09T10:54:51.432Z,98842.97
2022-11-09T10:58:00.708Z,98795.63
2022-11-09T11:01:19.756Z,98825.81
2022-11-09T11:04:26.417Z,98821.03
2022-11-09T11:07:31.081Z,98801.94
2022-11-09T11:10:36.112Z,98805.88
2022-11-09T11:13:41.481Z,98806.09
2022-11-09T11:16:47.055Z,98824.59
2022-11-09T11:19:51.960Z,98782.41
2022-11-09T11:23:09.293Z,98824.34
2022-11-09T11:26:22.901Z,98812.88
2022-11-09T11:29:41.022Z,98818.16
2022-11-09T11:32:50.483Z,98816.28
2022-11-09T11:36:04.399Z,98811.38
2022-11-09T11:39:22.633Z,98813.16
2022-11-09T11:42:49.834Z,98797.06
2022-11-09T11:46:14.185Z,98787.38
2022-11-09T11:49:38.101Z,98810.25
2022-11-09T11:52:48.902Z,98812.78
2022-11-09T11:56:12.094Z,98806.81
2022-11-09T11:59:35.790Z,98798.78
2022-11-09T12:03:02.497Z,98794.25
2022-11-09T12:06:39.553Z,98796.44
2022-11-09T12:10:07.584Z,98801.03
2022-11-09T12:13:31.313Z,98796.84
2022-11-09T12:16:44.912Z,98755.91
2022-11-09T12:20:02.397Z,98773.00
2022-11-09T12:23:38.657Z,98793.41
2022-11-09T12:31:01.482Z,98785.06
2022-11-09T12:34:16.449Z,98788.81
2022-11-09T12:37:28.035Z,98780.13
2022-11-09T12:40:39.229Z,98786.78
2022-11-09T12:44:14.591Z,98758.69
2022-11-09T12:47:31.753Z,98785.19
2022-11-09T12:50:37.656Z,98727.09
2022-11-09T12:53:43.078Z,98772.53
2022-11-09T12:57:22.818Z,98787.13
2022-11-09T13:00:33.718Z,98781.25
2022-11-09T13:03:51.912Z,98787.19
2022-11-09T13:07:08.935Z,98784.22
2022-11-09T13:10:43.246Z,98795.41
2022-11-09T13:13:48.477Z,98799.06
2022-11-09T13:17:14.412Z,98781.06
2022-11-09T13:20:53.997Z,98788.81
2022-11-09T13:24:31.618Z,98790.91
2022-11-09T13:27:37.882Z,98793.44
2022-11-09T13:30:43.583Z,98779.69
2022-11-09T13:33:48.332Z,98777.31
2022-11-09T13:37:31.127Z,98805.75
2022-11-09T13:40:40.627Z,98774.84
2022-11-09T13:43:45.537Z,98815.16
2022-11-09T13:46:53.753Z,98803.81
2022-11-09T13:49:59.197Z,98783.69
2022-11-09T13:53:24.254Z,98818.00
2022-11-09T13:56:35.316Z,98817.38
2022-11-09T13:59:47.091Z,98822.78
2022-11-09T14:02:57.108Z,98798.91
2022-11-09T14:06:03.090Z,98811.94
2022-11-09T14:09:17.555Z,98809.50
2022-11-09T14:12:54.919Z,98842.28
2022-11-09T14:16:07.205Z,98786.72
2022-11-09T14:19:49.944Z,98850.38
2022-11-09T14:22:55.049Z,98846.22
2022-11-09T14:26:15.953Z,98820.63
2022-11-09T14:29:22.834Z,98859.41
2022-11-09T14:32:35.506Z,98855.94
2022-11-09T14:35:40.814Z,98829.38
2022-11-09T14:38:48.016Z,98851.84
2022-11-09T14:41:54.426Z,98867.94
2022-11-09T14:44:59.750Z,98857.25
2022-11-09T14:48:05.223Z,98853.75
2022-11-09T14:51:14.552Z,98871.81
2022-11-09T14:54:24.194Z,98885.59
2022-11-09T14:57:29.309Z,98882.13
2022-11-09T15:00:35.087Z,98857.16
2022-11-09T15:03:39.881Z,98879.53
2022-11-09T15:06:54.262Z,98873.75
2022-11-09T15:10:07.125Z,98871.34
2022-11-09T15:13:12.311Z,98854.50
2022-11-09T15:16:26.348Z,98864.91
2022-11-09T15:19:47.805Z,98883.06
2022-11-09T15:23:02.572Z,98876.31
2022-11-09T15:26:25.394Z,98835.25
2022-11-09T15:29:42.349Z,98880.81
2022-11-09T15:32:48.517Z,98877.56
2022-11-09T15:36:04.660Z,98893.09
2022-11-09T15:39:15.972Z,98890.53
2022-11-09T15:42:21.752Z,98875.06
2022-11-09T15:45:26.716Z,98895.88
2022-11-09T15:48:31.794Z,98890.69
2022-11-09T15:51:37.115Z,98875.44
2022-11-09T15:54:46.621Z,98867.75
2022-11-09T15:57:54.485Z,98877.38
2022-11-09T16:00:59.382Z,98893.81
2022-11-09T16:04:04.239Z,98883.50
2022-11-09T16:07:14.375Z,98897.47
2022-11-09T16:10:23.081Z,98896.75
2022-11-09T16:13:28.336Z,98882.19
2022-11-09T16:16:33.520Z,98865.16
2022-11-09T16:19:39.665Z,98884.13
2022-11-09T16:22:44.832Z,98867.00
2022-11-09T16:25:50.102Z,98898.88
2022-11-09T16:28:55.668Z,98873.13
2022-11-09T16:32:01.216Z,98904.13
2022-11-09T16:38:39.216Z,98879.38
2022-11-09T16:41:50.020Z,98907.75
2022-11-09T16:44:59.147Z,98921.56
2022-11-09T16:48:11.614Z,98915.56
2022-11-09T16:51:16.472Z,98917.31
2022-11-09T16:54:21.048Z,98940.47
2022-11-09T16:57:25.924Z,98933.75
2022-11-09T17:00:55.782Z,98955.25
2022-11-09T17:03:56.838Z,98973.44
2022-11-09T17:07:02.049Z,98966.53
2022-11-09T17:10:07.586Z,98977.78
2022-11-09T17:13:13.975Z,98980.47
2022-11-09T17:16:20.271Z,98967.59
2022-11-09T17:19:25.045Z,98998.63
2022-11-09T17:22:30.713Z,98980.63
2022-11-09T17:25:35.756Z,99006.41
2022-11-09T17:28:43.180Z,98982.34
2022-11-09T17:31:47.987Z,98996.13
2022-11-09T17:34:53.443Z,99012.47
2022-11-09T17:37:58.270Z,99016.00
2022-11-09T17:41:09.335Z,99033.28
2022-11-09T17:44:14.381Z,98999.59
2022-11-09T17:47:19.707Z,99027.25
2022-11-09T17:50:24.229Z,99003.22
2022-11-09T17:53:30.343Z,99007.53
2022-11-09T17:56:35.868Z,99036.84
2022-11-09T17:59:41.037Z,99036.78
2022-11-09T18:02:46.098Z,99041.19
2022-11-09T18:05:50.926Z,98984.34
2022-11-09T18:09:25.883Z,99026.63
2022-11-09T18:12:21.895Z,99033.50
2022-11-09T18:15:27.279Z,99055.97
2022-11-09T18:18:32.432Z,99042.16
2022-11-09T18:21:37.664Z,99031.84
2022-11-09T18:24:42.953Z,99052.56
2022-11-09T18:27:48.004Z,99037.09
2022-11-09T18:30:53.009Z,99070.69
2022-11-09T18:33:59.952Z,99069.84
2022-11-09T18:37:04.847Z,99050.00
2022-11-09T18:40:10.814Z,99066.38
2022-11-09T18:43:15.881Z,99075.03
2022-11-09T18:46:22.124Z,99055.19
2022-11-09T18:49:27.057Z,99075.88
2022-11-09T18:52:33.799Z,99078.47
2022-11-09T18:55:39.005Z,99075.88
2022-11-09T18:58:48.880Z,99075.06
2022-11-09T19:01:53.993Z,99092.28
2022-11-09T19:04:59.227Z,99077.66
2022-11-09T19:08:04.709Z,99056.97
2022-11-09T19:11:14.087Z,99106.06
2022-11-09T19:14:19.354Z,99102.59
2022-11-09T19:17:24.564Z,99083.66
2022-11-09T19:20:29.380Z,99090.53
2022-11-09T19:23:35.044Z,99125.03
2022-11-09T19:26:40.328Z,99135.34
2022-11-09T19:29:44.953Z,99113.78
2022-11-09T19:32:49.916Z,99129.25
2022-11-09T19:36:23.475Z,99097.34
2022-11-09T19:39:19.381Z,99142.19
2022-11-09T19:42:25.086Z,99119.75
2022-11-09T19:45:30.112Z,99147.38
2022-11-09T19:48:35.051Z,99172.41
2022-11-09T19:51:40.313Z,99165.56
2022-11-09T19:54:45.177Z,99186.28
2022-11-09T19:57:50.150Z,99189.72
2022-11-09T20:01:06.454Z,99187.97
2022-11-09T20:04:11.819Z,99170.72
2022-11-09T20:07:17.016Z,99178.47
2022-11-09T20:10:21.756Z,99191.41
2022-11-09T20:13:26.740Z,99202.72
2022-11-09T20:16:32.969Z,99207.88
2022-11-09T20:19:38.171Z,99211.34
2022-11-09T20:22:43.299Z,99213.03
2022-11-09T20:25:48.288Z,99191.53
2022-11-09T20:28:54.155Z,99206.22
2022-11-09T20:31:59.152Z,99211.38
2022-11-09T20:35:04.381Z,99243.31
2022-11-09T20:38:09.409Z,99248.50
2022-11-09T20:41:15.016Z,99245.03
2022-11-09T20:44:19.844Z,99230.41
2022-11-09T20:47:49.269Z,99258.00
2022-11-09T20:50:49.981Z,99264.94
2022-11-09T20:53:54.999Z,99239.88
2022-11-09T20:56:59.762Z,99270.97
2022-11-09T21:00:05.361Z,99241.63
2022-11-09T21:03:10.678Z,99273.59
2022-11-09T21:06:16.173Z,99266.69
2022-11-09T21:09:21.384Z,99276.19
2022-11-09T21:12:27.394Z,99265.84
2022-11-09T21:15:32.147Z,99264.97
2022-11-09T21:18:37.691Z,99279.66
2022-11-09T21:21:42.645Z,99235.66
2022-11-09T21:25:06.414Z,99277.09
2022-11-09T21:28:33.532Z,99269.31
2022-11-09T21:31:38.570Z,99279.72
2022-11-09T21:34:43.577Z,99270.19
2022-11-09T21:37:48.943Z,99297.81
2022-11-09T21:40:54.133Z,99296.09
2022-11-09T21:43:58.938Z,99277.09
2022-11-09T21:47:04.101Z,99281.38
2022-11-09T21:50:12.571Z,99301.25
2022-11-09T21:53:18.350Z,99286.59
2022-11-09T21:56:23.447Z,99305.59
2022-11-09T21:59:28.922Z,99298.69
2022-11-09T22:02:33.944Z,99307.34
2022-11-09T22:05:41.930Z,99291.78
2022-11-09T22:08:47.393Z,99322.00
2022-11-09T22:12:10.894Z,99302.16
2022-11-09T22:15:34.747Z,99287.44
2022-11-09T22:18:58.747Z,99282.22
2022-11-09T22:22:04.009Z,99302.94
2022-11-09T22:25:09.184Z,99327.97
2022-11-09T22:28:14.192Z,99335.69
2022-11-09T22:31:18.913Z,99351.25
2022-11-09T22:34:23.868Z,99322.72
2022-11-09T22:37:28.961Z,99356.44
2022-11-09T22:40:33.918Z,99354.75
2022-11-09T22:43:41.680Z,99372.00
2022-11-09T22:46:49.071Z,99359.03
2022-11-09T22:49:54.322Z,99362.44
2022-11-09T22:53:03.785Z,99375.44
2022-11-09T22:56:10.865Z,99398.78
2022-11-09T22:59:17.835Z,99399.63
2022-11-09T23:02:23.215Z,99413.50
2022-11-09T23:05:28.384Z,99378.03
2022-11-09T23:08:38.158Z,99420.41
2022-11-09T23:11:43.568Z,99413.53
2022-11-09T23:15:04.031Z,99427.31
2022-11-09T23:18:27.905Z,99392.75
2022-11-09T23:21:35.536Z,99435.94
2022-11-09T23:24:59.334Z,99441.13
2022-11-09T23:28:04.469Z,99384.94
2022-11-09T23:31:12.009Z,99448.00
2022-11-09T23:34:17.038Z,99432.47
2022-11-09T23:37:21.929Z,99424.63
2022-11-09T23:40:28.184Z,99444.50
2022-11-09T23:43:33.984Z,99435.88
2022-11-09T23:46:39.469Z,99436.75
2022-11-09T23:49:44.409Z,99440.19
2022-11-09T23:52:49.543Z,99419.47
2022-11-09T23:55:54.999Z,99449.69
2022-11-09T23:58:59.967Z,99455.72
